sensor_id;sensor_type;location;lat;lon;timestamp;pressure;altitude;pressure_sealevel;temperature
74060;BMP280;62414;53.436;8.828;2022-08-03T00:01:23;101405.69;;;20.23
74060;BMP280;62414;53.436;8.828;2022-08-03T00:03:49;101407.59;;;20.17
74060;BMP280;62414;53.436;8.828;2022-08-03T00:06:14;101402.06;;;20.11
74060;BMP280;62414;53.436;8.828;2022-08-03T00:08:41;101402.22;;;20.02
74060;BMP280;62414;53.436;8.828;2022-08-03T00:11:07;101397.72;;;19.99
74060;BMP280;62414;53.436;8.828;2022-08-03T00:13:32;101398.09;;;19.92
74060;BMP280;62414;53.436;8.828;2022-08-03T00:15:58;101396.03;;;19.87
74060;BMP280;62414;53.436;8.828;2022-08-03T00:18:23;101399.69;;;19.78
74060;BMP280;62414;53.436;8.828;2022-08-03T00:20:49;101393.94;;;19.76
74060;BMP280;62414;53.436;8.828;2022-08-03T00:23:14;101396.19;;;19.78
74060;BMP280;62414;53.436;8.828;2022-08-03T00:25:41;101399.16;;;19.74
74060;BMP280;62414;53.436;8.828;2022-08-03T00:28:07;101399.69;;;19.78
74060;BMP280;62414;53.436;8.828;2022-08-03T00:30:33;101396.94;;;19.78
74060;BMP280;62414;53.436;8.828;2022-08-03T00:32:59;101395.94;;;19.76
74060;BMP280;62414;53.436;8.828;2022-08-03T00:35:25;101398.69;;;19.76
74060;BMP280;62414;53.436;8.828;2022-08-03T00:37:51;101396.69;;;19.76
74060;BMP280;62414;53.436;8.828;2022-08-03T00:40:18;101397.47;;;19.77
74060;BMP280;62414;53.436;8.828;2022-08-03T00:42:50;101400.38;;;19.73
74060;BMP280;62414;53.436;8.828;2022-08-03T00:45:16;101395.84;;;19.70
74060;BMP280;62414;53.436;8.828;2022-08-03T00:47:42;101392.59;;;19.66
74060;BMP280;62414;53.436;8.828;2022-08-03T00:50:08;101393.34;;;19.66
74060;BMP280;62414;53.436;8.828;2022-08-03T00:52:33;101392.78;;;19.62
74060;BMP280;62414;53.436;8.828;2022-08-03T00:54:59;101391.47;;;19.58
74060;BMP280;62414;53.436;8.828;2022-08-03T00:57:25;101393.16;;;19.55
74060;BMP280;62414;53.436;8.828;2022-08-03T00:59:51;101402.66;;;19.54
74060;BMP280;62414;53.436;8.828;2022-08-03T01:02:17;101391.88;;;19.51
74060;BMP280;62414;53.436;8.828;2022-08-03T01:04:42;101395.59;;;19.48
74060;BMP280;62414;53.436;8.828;2022-08-03T01:07:11;101391.41;;;19.52
74060;BMP280;62414;53.436;8.828;2022-08-03T01:09:48;101393.59;;;19.48
74060;BMP280;62414;53.436;8.828;2022-08-03T01:12:22;101395.25;;;19.40
74060;BMP280;62414;53.436;8.828;2022-08-03T01:14:54;101392.69;;;19.36
74060;BMP280;62414;53.436;8.828;2022-08-03T01:17:24;101394.41;;;19.34
74060;BMP280;62414;53.436;8.828;2022-08-03T01:19:58;101399.84;;;19.28
74060;BMP280;62414;53.436;8.828;2022-08-03T01:23:01;101400.78;;;19.25
74060;BMP280;62414;53.436;8.828;2022-08-03T01:25:33;101400.97;;;19.22
74060;BMP280;62414;53.436;8.828;2022-08-03T01:28:18;101412.44;;;19.20
74060;BMP280;62414;53.436;8.828;2022-08-03T01:30:48;101401.66;;;19.17
74060;BMP280;62414;53.436;8.828;2022-08-03T01:33:17;101400.97;;;19.22
74060;BMP280;62414;53.436;8.828;2022-08-03T01:35:49;101396.25;;;19.22
74060;BMP280;62414;53.436;8.828;2022-08-03T01:38:20;101399.56;;;19.26
74060;BMP280;62414;53.436;8.828;2022-08-03T01:40:46;101397.16;;;19.14
74060;BMP280;62414;53.436;8.828;2022-08-03T01:43:15;101402.94;;;19.01
74060;BMP280;62414;53.436;8.828;2022-08-03T01:45:42;101399.06;;;18.93
74060;BMP280;62414;53.436;8.828;2022-08-03T01:48:10;101393.78;;;18.89
74060;BMP280;62414;53.436;8.828;2022-08-03T01:50:37;101398.50;;;18.89
74060;BMP280;62414;53.436;8.828;2022-08-03T01:53:04;101393.44;;;18.82
74060;BMP280;62414;53.436;8.828;2022-08-03T01:55:31;101392.09;;;18.77
74060;BMP280;62414;53.436;8.828;2022-08-03T01:57:58;101393.97;;;18.71
74060;BMP280;62414;53.436;8.828;2022-08-03T02:00:26;101389.72;;;18.70
74060;BMP280;62414;53.436;8.828;2022-08-03T02:02:53;101387.94;;;18.67
74060;BMP280;62414;53.436;8.828;2022-08-03T02:05:22;101376.66;;;18.65
74060;BMP280;62414;53.436;8.828;2022-08-03T02:07:48;101381.81;;;18.57
74060;BMP280;62414;53.436;8.828;2022-08-03T02:10:14;101383.78;;;18.57
74060;BMP280;62414;53.436;8.828;2022-08-03T02:12:43;101380.50;;;18.53
74060;BMP280;62414;53.436;8.828;2022-08-03T02:15:09;101378.69;;;18.50
74060;BMP280;62414;53.436;8.828;2022-08-03T02:17:36;101379.44;;;18.50
74060;BMP280;62414;53.436;8.828;2022-08-03T02:20:03;101377.84;;;18.44
74060;BMP280;62414;53.436;8.828;2022-08-03T02:22:32;101378.78;;;18.41
74060;BMP280;62414;53.436;8.828;2022-08-03T02:24:57;101376.31;;;18.43
74060;BMP280;62414;53.436;8.828;2022-08-03T02:27:25;101377.75;;;18.38
74060;BMP280;62414;53.436;8.828;2022-08-03T02:29:55;101371.88;;;18.30
74060;BMP280;62414;53.436;8.828;2022-08-03T02:32:27;101371.56;;;18.28
74060;BMP280;62414;53.436;8.828;2022-08-03T02:34:55;101370.66;;;18.31
74060;BMP280;62414;53.436;8.828;2022-08-03T02:37:24;101377.84;;;18.29
74060;BMP280;62414;53.436;8.828;2022-08-03T02:39:56;101372.53;;;18.25
74060;BMP280;62414;53.436;8.828;2022-08-03T02:42:23;101376.03;;;18.26
74060;BMP280;62414;53.436;8.828;2022-08-03T02:44:52;101370.72;;;18.22
74060;BMP280;62414;53.436;8.828;2022-08-03T02:47:20;101362.22;;;18.20
74060;BMP280;62414;53.436;8.828;2022-08-03T02:49:47;101368.16;;;18.19
74060;BMP280;62414;53.436;8.828;2022-08-03T02:52:14;101363.66;;;18.16
74060;BMP280;62414;53.436;8.828;2022-08-03T02:54:40;101359.84;;;18.13
74060;BMP280;62414;53.436;8.828;2022-08-03T02:57:07;101360.03;;;18.10
74060;BMP280;62414;53.436;8.828;2022-08-03T02:59:35;101356.41;;;18.03
74060;BMP280;62414;53.436;8.828;2022-08-03T03:02:02;101370.44;;;18.05
74060;BMP280;62414;53.436;8.828;2022-08-03T03:04:28;101357.38;;;18.00
74060;BMP280;62414;53.436;8.828;2022-08-03T03:06:55;101359.09;;;17.98
74060;BMP280;62414;53.436;8.828;2022-08-03T03:09:21;101354.50;;;17.95
74060;BMP280;62414;53.436;8.828;2022-08-03T03:11:48;101355.66;;;17.88
74060;BMP280;62414;53.436;8.828;2022-08-03T03:14:16;101363.59;;;17.86
74060;BMP280;62414;53.436;8.828;2022-08-03T03:16:43;101357.34;;;17.86
74060;BMP280;62414;53.436;8.828;2022-08-03T03:19:11;101359.31;;;17.85
74060;BMP280;62414;53.436;8.828;2022-08-03T03:21:37;101355.06;;;17.84
74060;BMP280;62414;53.436;8.828;2022-08-03T03:24:04;101360.06;;;17.86
74060;BMP280;62414;53.436;8.828;2022-08-03T03:26:31;101359.22;;;17.80
74060;BMP280;62414;53.436;8.828;2022-08-03T03:28:56;101361.94;;;17.80
74060;BMP280;62414;53.436;8.828;2022-08-03T03:31:23;101364.44;;;17.78
74060;BMP280;62414;53.436;8.828;2022-08-03T03:33:49;101358.19;;;17.77
74060;BMP280;62414;53.436;8.828;2022-08-03T03:36:15;101352.88;;;17.73
74060;BMP280;62414;53.436;8.828;2022-08-03T03:38:40;101350.88;;;17.74
74060;BMP280;62414;53.436;8.828;2022-08-03T03:41:06;101351.63;;;17.74
74060;BMP280;62414;53.436;8.828;2022-08-03T03:43:31;101349.28;;;17.67
74060;BMP280;62414;53.436;8.828;2022-08-03T03:45:57;101349.41;;;17.73
74060;BMP280;62414;53.436;8.828;2022-08-03T03:48:24;101345.00;;;17.66
74060;BMP280;62414;53.436;8.828;2022-08-03T03:50:50;101343.50;;;17.65
74060;BMP280;62414;53.436;8.828;2022-08-03T03:53:16;101346.56;;;17.67
74060;BMP280;62414;53.436;8.828;2022-08-03T03:55:42;101342.91;;;17.61
74060;BMP280;62414;53.436;8.828;2022-08-03T03:58:07;101342.47;;;17.63
74060;BMP280;62414;53.436;8.828;2022-08-03T04:00:33;101338.97;;;17.62
74060;BMP280;62414;53.436;8.828;2022-08-03T04:02:58;101336.09;;;17.57
74060;BMP280;62414;53.436;8.828;2022-08-03T04:05:25;101350.19;;;17.64
74060;BMP280;62414;53.436;8.828;2022-08-03T04:07:56;101342.28;;;17.66
74060;BMP280;62414;53.436;8.828;2022-08-03T04:10:26;101344.47;;;17.62
74060;BMP280;62414;53.436;8.828;2022-08-03T04:12:53;101344.47;;;17.62
74060;BMP280;62414;53.436;8.828;2022-08-03T04:15:21;101341.25;;;17.64
74060;BMP280;62414;53.436;8.828;2022-08-03T04:17:49;101336.34;;;17.68
74060;BMP280;62414;53.436;8.828;2022-08-03T04:20:17;101336.63;;;17.70
74060;BMP280;62414;53.436;8.828;2022-08-03T04:22:47;101338.25;;;17.77
74060;BMP280;62414;53.436;8.828;2022-08-03T04:25:15;101342.00;;;17.79
74060;BMP280;62414;53.436;8.828;2022-08-03T04:27:42;101334.09;;;17.81
74060;BMP280;62414;53.436;8.828;2022-08-03T04:30:09;101338.16;;;17.86
74060;BMP280;62414;53.436;8.828;2022-08-03T04:32:36;101340.72;;;17.89
74060;BMP280;62414;53.436;8.828;2022-08-03T04:35:03;101344.53;;;17.92
74060;BMP280;62414;53.436;8.828;2022-08-03T04:37:34;101335.16;;;17.98
74060;BMP280;62414;53.436;8.828;2022-08-03T04:40:06;101339.53;;;18.05
74060;BMP280;62414;53.436;8.828;2022-08-03T04:42:33;101343.41;;;18.13
74060;BMP280;62414;53.436;8.828;2022-08-03T04:45:01;101341.63;;;18.25
74060;BMP280;62414;53.436;8.828;2022-08-03T04:47:28;101342.09;;;18.38
74060;BMP280;62414;53.436;8.828;2022-08-03T04:49:54;101343.31;;;18.52
74060;BMP280;62414;53.436;8.828;2022-08-03T04:52:20;101347.25;;;18.65
74060;BMP280;62414;53.436;8.828;2022-08-03T04:54:45;101344.41;;;18.75
74060;BMP280;62414;53.436;8.828;2022-08-03T04:57:12;101344.38;;;18.89
74060;BMP280;62414;53.436;8.828;2022-08-03T04:59:38;101342.81;;;19.03
74060;BMP280;62414;53.436;8.828;2022-08-03T05:02:03;101343.25;;;19.16
74060;BMP280;62414;53.436;8.828;2022-08-03T05:04:29;101346.63;;;19.26
74060;BMP280;62414;53.436;8.828;2022-08-03T05:06:55;101355.78;;;19.38
74060;BMP280;62414;53.436;8.828;2022-08-03T05:09:20;101352.13;;;19.46
74060;BMP280;62414;53.436;8.828;2022-08-03T05:11:46;101348.50;;;19.55
74060;BMP280;62414;53.436;8.828;2022-08-03T05:14:12;101350.91;;;19.67
74060;BMP280;62414;53.436;8.828;2022-08-03T05:16:38;101347.19;;;19.71
74060;BMP280;62414;53.436;8.828;2022-08-03T05:19:03;101352.03;;;19.81
74060;BMP280;62414;53.436;8.828;2022-08-03T05:21:29;101347.41;;;19.93
74060;BMP280;62414;53.436;8.828;2022-08-03T05:23:54;101351.78;;;20.05
74060;BMP280;62414;53.436;8.828;2022-08-03T05:26:19;101354.13;;;20.18
74060;BMP280;62414;53.436;8.828;2022-08-03T05:28:45;101354.97;;;20.29
74060;BMP280;62414;53.436;8.828;2022-08-03T05:31:12;101365.06;;;20.38
74060;BMP280;62414;53.436;8.828;2022-08-03T05:33:37;101355.56;;;20.39
74060;BMP280;62414;53.436;8.828;2022-08-03T05:36:03;101357.13;;;20.46
74060;BMP280;62414;53.436;8.828;2022-08-03T05:38:29;101355.97;;;20.58
74060;BMP280;62414;53.436;8.828;2022-08-03T05:40:55;101369.31;;;20.71
74060;BMP280;62414;53.436;8.828;2022-08-03T05:43:20;101368.13;;;20.83
74060;BMP280;62414;53.436;8.828;2022-08-03T05:45:46;101364.16;;;20.84
74060;BMP280;62414;53.436;8.828;2022-08-03T05:48:12;101364.69;;;20.93
74060;BMP280;62414;53.436;8.828;2022-08-03T05:50:38;101365.72;;;21.01
74060;BMP280;62414;53.436;8.828;2022-08-03T05:53:03;101366.28;;;21.11
74060;BMP280;62414;53.436;8.828;2022-08-03T05:55:29;101365.31;;;21.20
74060;BMP280;62414;53.436;8.828;2022-08-03T05:57:54;101361.59;;;21.34
74060;BMP280;62414;53.436;8.828;2022-08-03T06:00:20;101367.88;;;21.34
74060;BMP280;62414;53.436;8.828;2022-08-03T06:02:45;101364.69;;;21.47
74060;BMP280;62414;53.436;8.828;2022-08-03T06:05:12;101365.72;;;21.61
74060;BMP280;62414;53.436;8.828;2022-08-03T06:07:37;101362.97;;;21.61
74060;BMP280;62414;53.436;8.828;2022-08-03T06:10:04;101373.25;;;21.66
74060;BMP280;62414;53.436;8.828;2022-08-03T06:12:29;101365.50;;;21.76
74060;BMP280;62414;53.436;8.828;2022-08-03T06:14:56;101370.78;;;21.85
74060;BMP280;62414;53.436;8.828;2022-08-03T06:17:21;101370.06;;;22.01
74060;BMP280;62414;53.436;8.828;2022-08-03T06:19:47;101365.03;;;22.11
74060;BMP280;62414;53.436;8.828;2022-08-03T06:22:14;101365.53;;;22.20
74060;BMP280;62414;53.436;8.828;2022-08-03T06:24:39;101360.03;;;22.26
74060;BMP280;62414;53.436;8.828;2022-08-03T06:27:04;101367.28;;;22.40
74060;BMP280;62414;53.436;8.828;2022-08-03T06:29:30;101364.03;;;22.47
74060;BMP280;62414;53.436;8.828;2022-08-03T06:31:55;101362.00;;;22.48
74060;BMP280;62414;53.436;8.828;2022-08-03T06:34:21;101362.25;;;22.50
74060;BMP280;62414;53.436;8.828;2022-08-03T06:36:46;101359.25;;;22.59
74060;BMP280;62414;53.436;8.828;2022-08-03T06:39:13;101371.25;;;22.67
74060;BMP280;62414;53.436;8.828;2022-08-03T06:41:38;101375.25;;;22.77
74060;BMP280;62414;53.436;8.828;2022-08-03T06:44:07;101372.72;;;22.85
74060;BMP280;62414;53.436;8.828;2022-08-03T06:46:32;101369.44;;;22.92
74060;BMP280;62414;53.436;8.828;2022-08-03T06:48:58;101375.16;;;23.11
74060;BMP280;62414;53.436;8.828;2022-08-03T06:51:23;101373.09;;;23.17
74060;BMP280;62414;53.436;8.828;2022-08-03T06:53:49;101385.59;;;23.29
74060;BMP280;62414;53.436;8.828;2022-08-03T06:56:15;101384.81;;;23.39
74060;BMP280;62414;53.436;8.828;2022-08-03T06:58:41;101392.78;;;23.54
74060;BMP280;62414;53.436;8.828;2022-08-03T07:01:06;101386.97;;;23.58
74060;BMP280;62414;53.436;8.828;2022-08-03T07:03:32;101391.91;;;23.70
74060;BMP280;62414;53.436;8.828;2022-08-03T07:05:57;101395.16;;;23.74
74060;BMP280;62414;53.436;8.828;2022-08-03T07:08:22;101397.13;;;23.79
74060;BMP280;62414;53.436;8.828;2022-08-03T07:10:48;101387.50;;;23.92
74060;BMP280;62414;53.436;8.828;2022-08-03T07:13:15;101392.69;;;24.01
74060;BMP280;62414;53.436;8.828;2022-08-03T07:15:40;101393.97;;;24.00
74060;BMP280;62414;53.436;8.828;2022-08-03T07:18:06;101394.47;;;23.98
74060;BMP280;62414;53.436;8.828;2022-08-03T07:20:31;101386.44;;;23.95
74060;BMP280;62414;53.436;8.828;2022-08-03T07:22:57;101392.53;;;23.93
74060;BMP280;62414;53.436;8.828;2022-08-03T07:25:22;101390.69;;;24.01
74060;BMP280;62414;53.436;8.828;2022-08-03T07:27:47;101391.28;;;24.19
74060;BMP280;62414;53.436;8.828;2022-08-03T07:30:15;101400.53;;;24.27
74060;BMP280;62414;53.436;8.828;2022-08-03T07:32:40;101401.69;;;24.37
74060;BMP280;62414;53.436;8.828;2022-08-03T07:35:07;101412.28;;;24.33
74060;BMP280;62414;53.436;8.828;2022-08-03T07:37:33;101405.50;;;24.34
74060;BMP280;62414;53.436;8.828;2022-08-03T07:39:58;101420.50;;;24.44
74060;BMP280;62414;53.436;8.828;2022-08-03T07:42:24;101404.53;;;24.31
74060;BMP280;62414;53.436;8.828;2022-08-03T07:44:49;101416.72;;;24.17
74060;BMP280;62414;53.436;8.828;2022-08-03T07:47:18;101406.91;;;24.16
74060;BMP280;62414;53.436;8.828;2022-08-03T07:49:43;101411.13;;;24.23
74060;BMP280;62414;53.436;8.828;2022-08-03T07:52:09;101420.84;;;24.35
74060;BMP280;62414;53.436;8.828;2022-08-03T07:54:34;101407.22;;;24.37
74060;BMP280;62414;53.436;8.828;2022-08-03T07:57:00;101411.50;;;24.38
74060;BMP280;62414;53.436;8.828;2022-08-03T07:59:25;101411.97;;;24.42
74060;BMP280;62414;53.436;8.828;2022-08-03T08:01:51;101410.78;;;24.62
74060;BMP280;62414;53.436;8.828;2022-08-03T08:04:18;101413.97;;;24.71
74060;BMP280;62414;53.436;8.828;2022-08-03T08:06:43;101410.44;;;24.90
74060;BMP280;62414;53.436;8.828;2022-08-03T08:09:08;101406.00;;;25.05
74060;BMP280;62414;53.436;8.828;2022-08-03T08:11:34;101405.50;;;25.26
74060;BMP280;62414;53.436;8.828;2022-08-03T08:13:59;101407.22;;;25.29
74060;BMP280;62414;53.436;8.828;2022-08-03T08:16:25;101401.50;;;25.21
74060;BMP280;62414;53.436;8.828;2022-08-03T08:18:50;101415.31;;;25.27
74060;BMP280;62414;53.436;8.828;2022-08-03T08:21:17;101396.81;;;25.16
74060;BMP280;62414;53.436;8.828;2022-08-03T08:23:42;101405.13;;;25.16
74060;BMP280;62414;53.436;8.828;2022-08-03T08:26:08;101403.69;;;25.28
74060;BMP280;62414;53.436;8.828;2022-08-03T08:28:33;101405.84;;;25.35
74060;BMP280;62414;53.436;8.828;2022-08-03T08:30:59;101402.78;;;25.39
74060;BMP280;62414;53.436;8.828;2022-08-03T08:33:24;101396.44;;;25.44
74060;BMP280;62414;53.436;8.828;2022-08-03T08:35:51;101392.66;;;25.60
74060;BMP280;62414;53.436;8.828;2022-08-03T08:38:18;101402.44;;;25.80
74060;BMP280;62414;53.436;8.828;2022-08-03T08:40:44;101403.66;;;25.84
74060;BMP280;62414;53.436;8.828;2022-08-03T08:43:09;101405.34;;;25.87
74060;BMP280;62414;53.436;8.828;2022-08-03T08:45:35;101405.97;;;25.93
74060;BMP280;62414;53.436;8.828;2022-08-03T08:48:02;101407.56;;;25.89
74060;BMP280;62414;53.436;8.828;2022-08-03T08:50:28;101404.59;;;25.87
74060;BMP280;62414;53.436;8.828;2022-08-03T08:52:53;101396.53;;;25.70
74060;BMP280;62414;53.436;8.828;2022-08-03T08:55:22;101402.63;;;25.82
74060;BMP280;62414;53.436;8.828;2022-08-03T08:57:49;101398.47;;;25.88
74060;BMP280;62414;53.436;8.828;2022-08-03T09:00:15;101392.78;;;26.00
74060;BMP280;62414;53.436;8.828;2022-08-03T09:02:41;101398.97;;;26.06
74060;BMP280;62414;53.436;8.828;2022-08-03T09:05:09;101400.22;;;26.37
74060;BMP280;62414;53.436;8.828;2022-08-03T09:07:34;101402.75;;;26.35
74060;BMP280;62414;53.436;8.828;2022-08-03T09:10:00;101393.03;;;26.41
74060;BMP280;62414;53.436;8.828;2022-08-03T09:12:27;101396.22;;;26.45
74060;BMP280;62414;53.436;8.828;2022-08-03T09:14:53;101396.56;;;26.55
74060;BMP280;62414;53.436;8.828;2022-08-03T09:17:19;101386.84;;;26.61
74060;BMP280;62414;53.436;8.828;2022-08-03T09:20:03;101393.44;;;26.85
74060;BMP280;62414;53.436;8.828;2022-08-03T09:22:29;101392.56;;;26.90
74060;BMP280;62414;53.436;8.828;2022-08-03T09:24:56;101394.19;;;26.85
74060;BMP280;62414;53.436;8.828;2022-08-03T09:27:22;101390.53;;;26.90
74060;BMP280;62414;53.436;8.828;2022-08-03T09:29:50;101394.06;;;27.04
74060;BMP280;62414;53.436;8.828;2022-08-03T09:32:18;101389.22;;;27.18
74060;BMP280;62414;53.436;8.828;2022-08-03T09:34:45;101380.47;;;27.00
74060;BMP280;62414;53.436;8.828;2022-08-03T09:37:12;101390.66;;;26.98
74060;BMP280;62414;53.436;8.828;2022-08-03T09:39:37;101388.16;;;27.08
74060;BMP280;62414;53.436;8.828;2022-08-03T09:42:05;101385.13;;;27.19
74060;BMP280;62414;53.436;8.828;2022-08-03T09:44:34;101383.97;;;27.35
74060;BMP280;62414;53.436;8.828;2022-08-03T09:47:02;101379.75;;;27.55
74060;BMP280;62414;53.436;8.828;2022-08-03T09:49:27;101381.78;;;27.54
74060;BMP280;62414;53.436;8.828;2022-08-03T09:51:53;101386.25;;;27.57
74060;BMP280;62414;53.436;8.828;2022-08-03T09:54:25;101387.41;;;27.62
74060;BMP280;62414;53.436;8.828;2022-08-03T09:56:51;101392.41;;;27.63
74060;BMP280;62414;53.436;8.828;2022-08-03T09:59:22;101386.00;;;27.68
74060;BMP280;62414;53.436;8.828;2022-08-03T10:01:48;101384.34;;;27.73
74060;BMP280;62414;53.436;8.828;2022-08-03T10:04:15;101387.03;;;27.86
74060;BMP280;62414;53.436;8.828;2022-08-03T10:06:42;101381.47;;;27.86
74060;BMP280;62414;53.436;8.828;2022-08-03T10:09:10;101379.56;;;28.02
74060;BMP280;62414;53.436;8.828;2022-08-03T10:11:36;101387.56;;;28.05
74060;BMP280;62414;53.436;8.828;2022-08-03T10:14:03;101387.44;;;28.11
74060;BMP280;62414;53.436;8.828;2022-08-03T10:16:34;101390.31;;;28.26
74060;BMP280;62414;53.436;8.828;2022-08-03T10:19:00;101393.28;;;28.28
74060;BMP280;62414;53.436;8.828;2022-08-03T10:21:32;101381.16;;;28.18
74060;BMP280;62414;53.436;8.828;2022-08-03T10:23:58;101386.53;;;28.16
74060;BMP280;62414;53.436;8.828;2022-08-03T10:26:26;101391.22;;;28.21
74060;BMP280;62414;53.436;8.828;2022-08-03T10:28:55;101383.09;;;28.31
74060;BMP280;62414;53.436;8.828;2022-08-03T10:31:22;101390.06;;;28.52
74060;BMP280;62414;53.436;8.828;2022-08-03T10:33:49;101387.91;;;28.66
74060;BMP280;62414;53.436;8.828;2022-08-03T10:36:16;101388.56;;;28.44
74060;BMP280;62414;53.436;8.828;2022-08-03T10:38:45;101391.50;;;28.46
74060;BMP280;62414;53.436;8.828;2022-08-03T10:41:11;101387.94;;;28.74
74060;BMP280;62414;53.436;8.828;2022-08-03T10:43:44;101374.38;;;28.85
74060;BMP280;62414;53.436;8.828;2022-08-03T10:46:13;101378.94;;;29.11
74060;BMP280;62414;53.436;8.828;2022-08-03T10:48:40;101380.63;;;29.22
74060;BMP280;62414;53.436;8.828;2022-08-03T10:51:05;101379.13;;;29.21
74060;BMP280;62414;53.436;8.828;2022-08-03T10:53:35;101376.53;;;29.23
74060;BMP280;62414;53.436;8.828;2022-08-03T10:56:03;101380.88;;;28.80
74060;BMP280;62414;53.436;8.828;2022-08-03T10:58:48;101378.13;;;28.88
74060;BMP280;62414;53.436;8.828;2022-08-03T11:01:14;101383.41;;;29.29
74060;BMP280;62414;53.436;8.828;2022-08-03T11:04:13;101379.72;;;29.50
74060;BMP280;62414;53.436;8.828;2022-08-03T11:06:39;101373.00;;;29.60
74060;BMP280;62414;53.436;8.828;2022-08-03T11:09:16;101379.50;;;30.01
74060;BMP280;62414;53.436;8.828;2022-08-03T11:11:44;101377.88;;;30.38
74060;BMP280;62414;53.436;8.828;2022-08-03T11:14:12;101373.31;;;30.58
74060;BMP280;62414;53.436;8.828;2022-08-03T11:16:39;101369.00;;;30.64
74060;BMP280;62414;53.436;8.828;2022-08-03T11:19:06;101369.56;;;30.63
74060;BMP280;62414;53.436;8.828;2022-08-03T11:21:51;101366.88;;;30.80
74060;BMP280;62414;53.436;8.828;2022-08-03T11:27:17;101366.53;;;31.25
74060;BMP280;62414;53.436;8.828;2022-08-03T11:29:53;101375.28;;;31.29
74060;BMP280;62414;53.436;8.828;2022-08-03T11:32:50;101374.72;;;31.06
74060;BMP280;62414;53.436;8.828;2022-08-03T11:35:17;101373.00;;;31.11
74060;BMP280;62414;53.436;8.828;2022-08-03T11:43:45;101370.31;;;31.62
74060;BMP280;62414;53.436;8.828;2022-08-03T11:46:12;101372.13;;;31.67
74060;BMP280;62414;53.436;8.828;2022-08-03T11:48:40;101381.78;;;31.74
74060;BMP280;62414;53.436;8.828;2022-08-03T11:51:07;101372.31;;;31.69
74060;BMP280;62414;53.436;8.828;2022-08-03T11:53:42;101382.97;;;31.88
74060;BMP280;62414;53.436;8.828;2022-08-03T11:56:08;101374.75;;;32.34
74060;BMP280;62414;53.436;8.828;2022-08-03T11:58:33;101374.84;;;32.27
74060;BMP280;62414;53.436;8.828;2022-08-03T12:01:04;101363.09;;;32.65
74060;BMP280;62414;53.436;8.828;2022-08-03T12:03:31;101376.19;;;32.79
74060;BMP280;62414;53.436;8.828;2022-08-03T12:05:57;101371.72;;;33.13
74060;BMP280;62414;53.436;8.828;2022-08-03T12:08:30;101375.16;;;33.40
74060;BMP280;62414;53.436;8.828;2022-08-03T12:10:57;101367.19;;;34.13
74060;BMP280;62414;53.436;8.828;2022-08-03T12:13:24;101376.63;;;34.28
74060;BMP280;62414;53.436;8.828;2022-08-03T12:15:51;101367.06;;;33.54
74060;BMP280;62414;53.436;8.828;2022-08-03T12:18:20;101359.53;;;33.56
74060;BMP280;62414;53.436;8.828;2022-08-03T12:20:46;101362.50;;;33.49
74060;BMP280;62414;53.436;8.828;2022-08-03T12:23:12;101362.34;;;33.75
74060;BMP280;62414;53.436;8.828;2022-08-03T12:25:40;101352.56;;;34.05
74060;BMP280;62414;53.436;8.828;2022-08-03T12:28:09;101363.31;;;34.18
74060;BMP280;62414;53.436;8.828;2022-08-03T12:30:34;101364.84;;;34.10
74060;BMP280;62414;53.436;8.828;2022-08-03T12:33:11;101362.47;;;34.06
74060;BMP280;62414;53.436;8.828;2022-08-03T12:35:37;101359.22;;;34.10
74060;BMP280;62414;53.436;8.828;2022-08-03T12:38:03;101347.97;;;34.10
74060;BMP280;62414;53.436;8.828;2022-08-03T12:40:29;101360.53;;;33.99
74060;BMP280;62414;53.436;8.828;2022-08-03T12:42:54;101362.47;;;34.06
74060;BMP280;62414;53.436;8.828;2022-08-03T12:45:21;101356.88;;;34.47
74060;BMP280;62414;53.436;8.828;2022-08-03T12:47:52;101350.06;;;34.50
74060;BMP280;62414;53.436;8.828;2022-08-03T12:50:22;101346.44;;;34.69
74060;BMP280;62414;53.436;8.828;2022-08-03T12:52:49;101344.28;;;35.10
74060;BMP280;62414;53.436;8.828;2022-08-03T12:55:18;101345.91;;;35.45
74060;BMP280;62414;53.436;8.828;2022-08-03T12:57:44;101348.72;;;35.45
74060;BMP280;62414;53.436;8.828;2022-08-03T13:00:10;101349.09;;;34.97
74060;BMP280;62414;53.436;8.828;2022-08-03T13:02:36;101361.28;;;35.12
74060;BMP280;62414;53.436;8.828;2022-08-03T13:05:08;101349.59;;;34.84
74060;BMP280;62414;53.436;8.828;2022-08-03T13:07:39;101354.47;;;34.63
74060;BMP280;62414;53.436;8.828;2022-08-03T13:10:07;101352.84;;;34.59
74060;BMP280;62414;53.436;8.828;2022-08-03T13:12:45;101355.69;;;34.50
74060;BMP280;62414;53.436;8.828;2022-08-03T13:15:10;101345.41;;;35.16
74060;BMP280;62414;53.436;8.828;2022-08-03T13:17:36;101339.88;;;36.05
74060;BMP280;62414;53.436;8.828;2022-08-03T13:20:02;101340.00;;;36.54
74060;BMP280;62414;53.436;8.828;2022-08-03T13:22:27;101346.13;;;37.22
74060;BMP280;62414;53.436;8.828;2022-08-03T13:24:54;101343.47;;;36.41
74060;BMP280;62414;53.436;8.828;2022-08-03T13:27:21;101338.53;;;36.41
74060;BMP280;62414;53.436;8.828;2022-08-03T13:29:47;101339.25;;;36.76
74060;BMP280;62414;53.436;8.828;2022-08-03T13:32:12;101342.09;;;37.25
74060;BMP280;62414;53.436;8.828;2022-08-03T13:34:37;101344.81;;;37.87
74060;BMP280;62414;53.436;8.828;2022-08-03T13:37:03;101334.91;;;38.54
74060;BMP280;62414;53.436;8.828;2022-08-03T13:39:29;101345.09;;;38.05
74060;BMP280;62414;53.436;8.828;2022-08-03T13:41:54;101351.25;;;38.01
74060;BMP280;62414;53.436;8.828;2022-08-03T13:44:21;101345.19;;;38.07
74060;BMP280;62414;53.436;8.828;2022-08-03T13:46:47;101343.69;;;37.92
74060;BMP280;62414;53.436;8.828;2022-08-03T13:49:12;101334.28;;;38.01
74060;BMP280;62414;53.436;8.828;2022-08-03T13:51:38;101330.91;;;38.59
74060;BMP280;62414;53.436;8.828;2022-08-03T13:54:03;101324.84;;;39.08
74060;BMP280;62414;53.436;8.828;2022-08-03T13:56:29;101322.00;;;39.08
74060;BMP280;62414;53.436;8.828;2022-08-03T13:58:55;101324.47;;;38.86
74060;BMP280;62414;53.436;8.828;2022-08-03T14:01:23;101323.31;;;39.21
74060;BMP280;62414;53.436;8.828;2022-08-03T14:03:49;101320.91;;;39.60
74060;BMP280;62414;53.436;8.828;2022-08-03T14:06:14;101314.06;;;39.65